Time;durP1;ratioP1;P1;durP2;ratioP2;P2;SDS_P1;SDS_P2;PMS_P1;PMS_P2;Temp;Humidity;BMP_temperature;BMP_pressure;BME280_temperature;BME280_humidity;BME280_pressure;Samples;Min_cycle;Max_cycle;Signal;HPM_P1;HPM_P2
2021/03/13 00:01:17;;;;;;;0.30;0.10;;;;;;;7.00;100.00;99329.09;5045541;28;20492;-53
2021/03/13 00:03:43;;;;;;;0.30;0.10;;;;;;;7.07;100.00;99333.25;5042933;28;20449;-53
2021/03/13 00:06:10;;;;;;;0.30;0.20;;;;;;;6.99;100.00;99327.31;5038803;28;20836;-53
2021/03/13 00:08:37;;;;;;;0.30;0.20;;;;;;;6.99;100.00;99327.31;5041221;28;20452;-53
2021/03/13 00:11:09;;;;;;;0.30;0.20;;;;;;;6.95;100.00;99323.03;5046065;28;20440;-53
2021/03/13 00:13:36;;;;;;;0.30;0.20;;;;;;;6.81;100.00;99320.81;5044207;28;20473;-53
2021/03/13 00:16:05;;;;;;;0.30;0.10;;;;;;;6.87;100.00;99323.28;5038360;28;20501;-53
2021/03/13 00:18:32;;;;;;;0.30;0.10;;;;;;;7.05;100.00;99314.81;5040232;28;20447;-53
2021/03/13 00:20:58;;;;;;;0.30;0.10;;;;;;;6.82;100.00;99318.13;5045266;28;20589;-54
2021/03/13 00:23:25;;;;;;;0.30;0.10;;;;;;;6.98;100.00;99317.66;5044328;28;20451;-53
2021/03/13 00:25:52;;;;;;;0.20;0.10;;;;;;;7.07;100.00;99306.84;5038278;28;20936;-53
2021/03/13 00:28:18;;;;;;;0.27;0.20;;;;;;;7.04;100.00;99302.50;5040953;28;20466;-53
2021/03/13 00:30:47;;;;;;;0.27;0.20;;;;;;;6.97;100.00;99305.38;5032376;28;20456;-53
2021/03/13 00:33:19;;;;;;;0.30;0.20;;;;;;;7.10;100.00;99306.72;5031855;28;20460;-53
2021/03/13 00:35:49;;;;;;;0.30;0.20;;;;;;;7.17;100.00;99304.78;5045671;28;20451;-53
2021/03/13 00:38:16;;;;;;;0.30;0.10;;;;;;;6.96;100.00;99307.16;5044879;28;20462;-53
2021/03/13 00:40:43;;;;;;;0.30;0.13;;;;;;;7.05;100.00;99291.03;5037997;28;20616;-53
2021/03/13 00:43:11;;;;;;;0.30;0.10;;;;;;;7.20;100.00;99279.13;5038773;28;20489;-53
2021/03/13 00:45:39;;;;;;;0.30;0.20;;;;;;;7.20;100.00;99289.69;5038394;28;20465;-53
2021/03/13 00:48:07;;;;;;;0.30;0.20;;;;;;;7.20;100.00;99286.19;5037651;28;20507;-54
2021/03/13 00:50:36;;;;;;;0.30;0.10;;;;;;;7.22;100.00;99292.28;5044788;28;20459;-53
2021/03/13 00:53:03;;;;;;;0.30;0.10;;;;;;;7.15;100.00;99277.53;5044938;28;20446;-53
2021/03/13 00:55:29;;;;;;;0.30;0.10;;;;;;;7.35;100.00;99278.63;5039600;28;20458;-53
2021/03/13 00:57:56;;;;;;;0.20;0.10;;;;;;;7.43;100.00;99281.91;5038093;28;20471;-53
2021/03/13 01:00:38;;;;;;;0.30;0.20;;;;;;;7.30;100.00;99285.00;5041503;28;20563;-53
2021/03/13 01:03:05;;;;;;;0.80;0.57;;;;;;;7.49;100.00;99270.25;5039016;28;20451;-53
2021/03/13 01:05:32;;;;;;;0.30;0.10;;;;;;;7.30;100.00;99275.28;5041272;28;20452;-53
2021/03/13 01:07:59;;;;;;;0.30;0.20;;;;;;;7.54;100.00;99262.16;5044705;28;20993;-53
2021/03/13 01:10:46;;;;;;;0.30;0.20;;;;;;;7.52;100.00;99262.22;5045243;28;20557;-53
2021/03/13 01:13:13;;;;;;;0.30;0.10;;;;;;;7.35;100.00;99256.63;5037968;28;20450;-53
2021/03/13 01:15:39;;;;;;;0.30;0.10;;;;;;;7.26;100.00;99249.84;5039022;28;20455;-53
2021/03/13 01:18:06;;;;;;;0.30;0.20;;;;;;;7.43;100.00;99247.53;5042000;28;20482;-53
2021/03/13 01:20:34;;;;;;;0.30;0.20;;;;;;;7.42;100.00;99256.38;5041937;28;20490;-53
2021/03/13 01:23:00;;;;;;;0.30;0.20;;;;;;;7.50;100.00;99244.69;5028880;28;20457;-53
2021/03/13 01:25:26;;;;;;;0.30;0.20;;;;;;;7.55;100.00;99235.69;5041726;28;20447;-54
2021/03/13 01:27:56;;;;;;;0.30;0.20;;;;;;;7.67;100.00;99232.63;5047940;28;20471;-53
2021/03/13 01:30:24;;;;;;;0.30;0.20;;;;;;;7.54;100.00;99230.44;5036393;28;20869;-53
2021/03/13 01:32:52;;;;;;;0.30;0.10;;;;;;;7.69;100.00;99229.94;5028723;28;20940;-54
2021/03/13 01:35:19;;;;;;;0.30;0.20;;;;;;;7.70;100.00;99224.59;5041454;28;20945;-53
2021/03/13 01:37:45;;;;;;;0.30;0.20;;;;;;;7.65;100.00;99229.16;5044604;28;20983;-53
2021/03/13 01:40:17;;;;;;;0.30;0.10;;;;;;;7.69;100.00;99216.72;5040977;28;20487;-54
2021/03/13 01:42:45;;;;;;;0.30;0.10;;;;;;;7.66;100.00;99214.16;5047493;28;20929;-53
2021/03/13 01:45:15;;;;;;;0.30;0.20;;;;;;;7.59;100.00;99200.28;5048413;28;20451;-53
2021/03/13 01:47:43;;;;;;;0.30;0.20;;;;;;;7.48;100.00;99191.84;5042957;28;20475;-53
2021/03/13 01:50:13;;;;;;;0.30;0.10;;;;;;;7.67;100.00;99179.72;5041213;28;21003;-53
2021/03/13 01:52:40;;;;;;;0.30;0.10;;;;;;;7.71;100.00;99180.50;5045644;28;20841;-54
2021/03/13 01:55:11;;;;;;;0.30;0.20;;;;;;;7.67;100.00;99174.44;5048212;28;20450;-54
2021/03/13 01:57:38;;;;;;;0.30;0.13;;;;;;;7.66;100.00;99177.13;5044627;28;20470;-53
2021/03/13 02:00:08;;;;;;;0.30;0.20;;;;;;;7.63;100.00;99169.31;5040178;28;20459;-53
2021/03/13 02:02:34;;;;;;;0.30;0.20;;;;;;;7.73;100.00;99157.50;5043727;28;20486;-53
2021/03/13 02:05:01;;;;;;;0.30;0.17;;;;;;;7.78;100.00;99160.84;5039313;28;20443;-53
2021/03/13 02:07:37;;;;;;;3.20;0.80;;;;;;;7.75;100.00;99153.03;5043238;28;20467;-53
2021/03/13 02:10:19;;;;;;;0.30;0.20;;;;;;;7.59;100.00;99160.63;5048093;28;20443;-53
2021/03/13 02:12:55;;;;;;;0.30;0.20;;;;;;;7.74;100.00;99153.94;5048064;28;20446;-52
2021/03/13 02:15:36;;;;;;;0.30;0.10;;;;;;;7.73;100.00;99150.44;5043172;28;20520;-53
2021/03/13 02:18:13;;;;;;;0.30;0.10;;;;;;;7.76;100.00;99146.81;5039581;28;20467;-54
2021/03/13 02:21:09;;;;;;;0.30;0.20;;;;;;;7.63;100.00;99142.88;5042006;28;20495;-53
2021/03/13 02:24:10;;;;;;;0.30;0.20;;;;;;;7.60;100.00;99125.34;5033648;28;20998;-53
2021/03/13 02:27:00;;;;;;;0.30;0.10;;;;;;;7.59;100.00;99128.03;5044471;28;20526;-53
2021/03/13 02:29:49;;;;;;;0.30;0.20;;;;;;;7.73;100.00;99113.41;5051414;28;20447;-53
2021/03/13 02:32:24;;;;;;;0.30;0.20;;;;;;;7.72;100.00;99126.69;5024472;28;20451;-53
2021/03/13 02:34:58;;;;;;;0.30;0.20;;;;;;;7.72;100.00;99110.81;5047569;28;20447;-53
2021/03/13 02:37:29;;;;;;;0.30;0.20;;;;;;;7.75;100.00;99108.06;5046692;28;20467;-53
2021/03/13 02:39:56;;;;;;;0.30;0.20;;;;;;;7.82;100.00;99111.34;5040242;28;20443;-54
2021/03/13 02:42:23;;;;;;;0.30;0.17;;;;;;;7.78;100.00;99104.44;5040617;28;20948;-53
2021/03/13 02:44:51;;;;;;;0.30;0.20;;;;;;;7.69;100.00;99105.66;5027071;28;20795;-53
2021/03/13 02:47:18;;;;;;;0.30;0.20;;;;;;;7.60;100.00;99105.97;5040132;28;20479;-54
2021/03/13 02:49:48;;;;;;;0.30;0.10;;;;;;;7.62;100.00;99091.75;5046571;28;20452;-53
2021/03/13 02:52:15;;;;;;;0.30;0.20;;;;;;;7.64;100.00;99083.78;5047261;28;20435;-54
2021/03/13 02:54:45;;;;;;;0.30;0.10;;;;;;;7.45;100.00;99095.94;5041671;28;20880;-53
2021/03/13 02:57:14;;;;;;;0.30;0.20;;;;;;;7.55;100.00;99084.13;5039864;28;20468;-53
2021/03/13 02:59:43;;;;;;;0.30;0.20;;;;;;;7.79;100.00;99075.28;5044956;28;20456;-53
2021/03/13 03:02:10;;;;;;;0.30;0.10;;;;;;;7.61;100.00;99081.25;5046748;28;20536;-53
2021/03/13 03:04:39;;;;;;;0.30;0.20;;;;;;;7.69;100.00;99064.19;5042903;28;20446;-55
2021/03/13 03:07:08;;;;;;;0.30;0.10;;;;;;;7.80;100.00;99061.13;5039751;28;20470;-54
2021/03/13 03:09:34;;;;;;;0.30;0.20;;;;;;;7.64;100.00;99041.47;5043577;28;20535;-53
2021/03/13 03:12:02;;;;;;;0.30;0.20;;;;;;;7.67;100.00;99047.50;5046501;28;20454;-53
2021/03/13 03:14:30;;;;;;;0.30;0.20;;;;;;;7.67;100.00;99038.69;5043555;28;20457;-54
2021/03/13 03:17:01;;;;;;;0.30;0.20;;;;;;;7.68;100.00;99028.09;5039853;28;20470;-54
2021/03/13 03:19:29;;;;;;;0.30;0.20;;;;;;;7.58;100.00;99033.75;5042201;28;20443;-53
2021/03/13 03:21:55;;;;;;;0.30;0.10;;;;;;;7.63;100.00;99034.44;5046307;28;20521;-53
2021/03/13 03:24:22;;;;;;;0.30;0.20;;;;;;;7.82;100.00;99037.28;5044182;28;20447;-53
2021/03/13 03:26:48;;;;;;;0.30;0.20;;;;;;;7.81;100.00;99035.53;5039530;28;20482;-53
2021/03/13 03:29:15;;;;;;;0.30;0.20;;;;;;;7.61;100.00;99031.88;5041422;28;20498;-53
2021/03/13 03:31:42;;;;;;;0.30;0.10;;;;;;;7.70;100.00;99023.59;5038463;28;20474;-53
2021/03/13 03:34:08;;;;;;;0.30;0.20;;;;;;;7.76;100.00;99022.50;5043120;28;20454;-52
2021/03/13 03:36:34;;;;;;;0.30;0.20;;;;;;;7.73;100.00;99019.97;5045228;28;20971;-53
2021/03/13 03:39:01;;;;;;;0.30;0.20;;;;;;;7.97;100.00;99021.69;5042376;28;20451;-54
2021/03/13 03:41:29;;;;;;;0.30;0.10;;;;;;;7.76;100.00;99009.28;5044761;28;20487;-53
2021/03/13 03:44:01;;;;;;;0.30;0.20;;;;;;;7.88;100.00;99016.75;5042933;28;20871;-54
2021/03/13 03:46:28;;;;;;;0.30;0.20;;;;;;;7.89;100.00;99007.03;5039256;28;20548;-53
2021/03/13 03:48:56;;;;;;;0.30;0.17;;;;;;;7.81;100.00;99007.34;5041408;28;20866;-53
2021/03/13 03:51:27;;;;;;;0.30;0.20;;;;;;;8.07;100.00;99006.28;5045967;28;20443;-53
2021/03/13 03:53:54;;;;;;;0.30;0.20;;;;;;;8.08;100.00;99005.38;5044789;28;20443;-54
2021/03/13 03:56:22;;;;;;;0.30;0.20;;;;;;;8.03;100.00;99008.22;5038723;28;20477;-53
2021/03/13 03:58:49;;;;;;;0.30;0.10;;;;;;;7.92;100.00;99006.91;5040287;28;20456;-53
2021/03/13 04:01:16;;;;;;;0.30;0.10;;;;;;;7.88;100.00;99007.94;5045583;28;20541;-53
2021/03/13 04:03:50;;;;;;;0.30;0.10;;;;;;;7.90;100.00;99001.66;5044890;28;20451;-53
2021/03/13 04:06:17;;;;;;;0.30;0.20;;;;;;;7.92;100.00;99001.59;5045131;28;20478;-53
2021/03/13 04:08:45;;;;;;;0.30;0.20;;;;;;;7.94;100.00;98991.81;5046103;28;20451;-53
2021/03/13 04:11:15;;;;;;;0.30;0.10;;;;;;;7.87;100.00;98991.22;5044861;28;20933;-53
2021/03/13 04:13:42;;;;;;;0.30;0.20;;;;;;;7.88;100.00;98987.63;5045552;28;20447;-53
2021/03/13 04:16:10;;;;;;;0.30;0.10;;;;;;;8.04;100.00;98993.19;5039646;28;20466;-54
2021/03/13 04:18:37;;;;;;;0.30;0.10;;;;;;;8.01;100.00;98985.38;5038508;28;20456;-53
2021/03/13 04:21:05;;;;;;;0.30;0.10;;;;;;;7.98;100.00;98996.09;5044038;28;20491;-53
2021/03/13 04:23:33;;;;;;;0.30;0.10;;;;;;;8.14;100.00;98988.41;5045296;28;20450;-53
2021/03/13 04:26:00;;;;;;;0.30;0.10;;;;;;;7.97;100.00;98986.44;5040601;28;20932;-53
2021/03/13 04:28:26;;;;;;;0.30;0.10;;;;;;;8.09;100.00;98970.06;5038483;28;20452;-53
2021/03/13 04:30:52;;;;;;;0.30;0.20;;;;;;;7.94;100.00;98968.88;5035498;28;20444;-53
2021/03/13 04:33:21;;;;;;;0.30;0.13;;;;;;;7.92;100.00;98960.13;5045112;28;20869;-53
2021/03/13 04:35:49;;;;;;;0.30;0.20;;;;;;;7.93;100.00;98947.78;5041037;28;20446;-53
2021/03/13 04:38:17;;;;;;;0.30;0.10;;;;;;;7.94;100.00;98944.19;5045065;28;20451;-53
2021/03/13 04:40:47;;;;;;;0.30;0.20;;;;;;;8.11;100.00;98940.91;5042123;28;20494;-53
2021/03/13 04:43:18;;;;;;;0.30;0.20;;;;;;;8.05;100.00;98941.13;5038431;28;20853;-53
2021/03/13 04:45:46;;;;;;;0.30;0.20;;;;;;;8.00;100.00;98931.59;5039745;28;20452;-54
2021/03/13 04:48:13;;;;;;;0.30;0.20;;;;;;;7.91;100.00;98929.31;5045189;28;20941;-53
2021/03/13 04:50:41;;;;;;;0.30;0.13;;;;;;;8.02;100.00;98923.59;5045004;28;20508;-53
2021/03/13 04:53:08;;;;;;;0.30;0.20;;;;;;;8.01;100.00;98914.81;5042810;28;20520;-53
2021/03/13 04:55:34;;;;;;;0.30;0.10;;;;;;;7.88;100.00;98902.13;5043189;28;20458;-53
2021/03/13 04:58:00;;;;;;;0.30;0.20;;;;;;;7.92;100.00;98904.56;5049123;28;20903;-53
2021/03/13 05:00:26;;;;;;;0.30;0.20;;;;;;;8.03;100.00;98883.84;5048548;28;20446;-55
2021/03/13 05:02:53;;;;;;;0.30;0.10;;;;;;;8.00;100.00;98886.63;5042571;28;20454;-54
2021/03/13 05:05:19;;;;;;;0.30;0.10;;;;;;;7.93;100.00;98893.06;5042378;28;20815;-53
2021/03/13 05:07:45;;;;;;;0.30;0.20;;;;;;;7.99;100.00;98884.03;5049263;28;20475;-53
2021/03/13 05:10:11;;;;;;;0.30;0.20;;;;;;;7.96;100.00;98879.75;5048778;28;20454;-54
2021/03/13 05:12:38;;;;;;;0.30;0.20;;;;;;;8.14;100.00;98861.38;5040733;28;20455;-53
2021/03/13 05:15:07;;;;;;;0.30;0.10;;;;;;;8.04;100.00;98866.19;5042375;28;20452;-53
2021/03/13 05:17:33;;;;;;;0.30;0.20;;;;;;;8.08;100.00;98866.91;5041797;28;20854;-53
2021/03/13 05:20:00;;;;;;;0.30;0.20;;;;;;;8.28;100.00;98859.00;5041432;28;20455;-53
2021/03/13 05:22:27;;;;;;;0.30;0.20;;;;;;;8.18;100.00;98863.81;5028481;28;21034;-53
2021/03/13 05:24:53;;;;;;;0.30;0.20;;;;;;;8.22;100.00;98848.66;5040965;28;20466;-53
2021/03/13 05:27:20;;;;;;;0.30;0.20;;;;;;;8.13;100.00;98847.28;5028729;28;20474;-53
2021/03/13 05:29:46;;;;;;;0.30;0.17;;;;;;;8.15;100.00;98842.78;5041815;28;20460;-53
2021/03/13 05:32:12;;;;;;;0.30;0.17;;;;;;;8.22;100.00;98835.44;5042006;28;20450;-53
2021/03/13 05:34:39;;;;;;;0.30;0.20;;;;;;;8.23;100.00;98834.53;5041443;28;20940;-53
2021/03/13 05:37:05;;;;;;;0.30;0.20;;;;;;;8.15;100.00;98828.69;5050539;28;20855;-53
2021/03/13 05:39:31;;;;;;;0.30;0.20;;;;;;;8.23;100.00;98818.66;5041805;28;20460;-53
2021/03/13 05:41:58;;;;;;;0.30;0.20;;;;;;;8.18;100.00;98816.19;5047816;28;20495;-54
2021/03/13 05:44:24;;;;;;;0.30;0.20;;;;;;;8.22;100.00;98815.16;5048428;28;20940;-53
2021/03/13 05:46:51;;;;;;;0.30;0.20;;;;;;;7.95;100.00;98819.81;5041062;28;20486;-53
2021/03/13 05:49:18;;;;;;;0.30;0.20;;;;;;;7.98;100.00;98798.50;5041761;28;20569;-54
2021/03/13 05:51:45;;;;;;;0.30;0.20;;;;;;;7.93;100.00;98776.66;5047678;28;20452;-54
2021/03/13 05:54:13;;;;;;;0.30;0.10;;;;;;;7.97;100.00;98782.72;5048333;28;20504;-53
2021/03/13 05:56:41;;;;;;;0.30;0.20;;;;;;;7.97;100.00;98782.72;5042418;28;20478;-53
2021/03/13 05:59:09;;;;;;;0.30;0.20;;;;;;;7.95;100.00;98772.19;5041201;28;20447;-53
2021/03/13 06:01:35;;;;;;;0.30;0.20;;;;;;;7.94;100.00;98759.84;5045888;28;20541;-53
2021/03/13 06:04:21;;;;;;;0.30;0.10;;;;;;;8.06;100.00;98739.97;5048098;28;20538;-53
2021/03/13 06:06:49;;;;;;;0.30;0.20;;;;;;;7.93;100.00;98744.06;5046064;28;20471;-54
2021/03/13 06:09:15;;;;;;;0.30;0.20;;;;;;;7.97;100.00;98717.41;5040903;28;20446;-53
2021/03/13 06:11:41;;;;;;;0.30;0.10;;;;;;;8.01;100.00;98721.66;5042837;28;20932;-53
2021/03/13 06:14:07;;;;;;;0.30;0.10;;;;;;;8.00;100.00;98725.22;5048049;28;20444;-53
2021/03/13 06:16:34;;;;;;;0.30;0.20;;;;;;;8.09;100.00;98716.03;5046277;28;20471;-53
2021/03/13 06:19:00;;;;;;;0.30;0.10;;;;;;;8.03;100.00;98722.44;5041110;28;20457;-53
2021/03/13 06:21:31;;;;;;;0.30;0.20;;;;;;;8.03;100.00;98727.72;5042539;28;20494;-53
2021/03/13 06:24:02;;;;;;;0.30;0.20;;;;;;;8.19;100.00;98727.06;5047671;28;20452;-53
2021/03/13 06:26:50;;;;;;;0.30;0.20;;;;;;;8.18;100.00;98714.75;5047264;28;21069;-54
2021/03/13 06:29:16;;;;;;;0.30;0.10;;;;;;;8.11;100.00;98702.72;5044890;28;20443;-53
2021/03/13 06:31:42;;;;;;;0.30;0.10;;;;;;;8.24;100.00;98702.13;5037715;28;20454;-54
2021/03/13 06:34:25;;;;;;;0.30;0.20;;;;;;;8.27;100.00;98691.38;5044756;28;20451;-53
2021/03/13 06:37:21;;;;;;;0.30;0.20;;;;;;;8.12;100.00;98680.63;5047551;28;20835;-54
2021/03/13 06:39:48;;;;;;;0.30;0.20;;;;;;;8.06;100.00;98680.88;5040933;28;20498;-53
2021/03/13 06:42:29;;;;;;;0.30;0.20;;;;;;;8.09;100.00;98692.22;5045032;28;20494;-53
2021/03/13 06:45:04;;;;;;;0.30;0.20;;;;;;;8.13;100.00;98691.16;5047611;28;20447;-53
2021/03/13 06:47:33;;;;;;;0.30;0.20;;;;;;;8.15;100.00;98683.13;5045594;28;20490;-53
2021/03/13 06:50:17;;;;;;;0.30;0.20;;;;;;;8.10;100.00;98671.91;5039182;28;20529;-53
2021/03/13 06:52:48;;;;;;;0.30;0.20;;;;;;;8.17;100.00;98686.56;5039049;28;20459;-53
2021/03/13 06:55:25;;;;;;;0.30;0.17;;;;;;;8.21;100.00;98661.66;5044081;28;20865;-54
2021/03/13 06:58:05;;;;;;;0.20;0.20;;;;;;;8.18;100.00;98670.63;5046372;28;20468;-54
2021/03/13 07:00:36;;;;;;;0.30;0.20;;;;;;;8.27;100.00;98664.91;5044760;28;20881;-54
2021/03/13 07:03:13;;;;;;;0.30;0.20;;;;;;;8.31;100.00;98657.69;5038993;28;20450;-54
2021/03/13 07:05:44;;;;;;;0.30;0.20;;;;;;;8.33;100.00;98663.75;5039215;28;20475;-54
2021/03/13 07:08:31;;;;;;;0.30;0.10;;;;;;;8.27;100.00;98641.09;5044007;28;20483;-54
2021/03/13 07:11:03;;;;;;;0.30;0.20;;;;;;;8.36;100.00;98633.66;5044780;28;20467;-54
2021/03/13 07:13:34;;;;;;;0.30;0.20;;;;;;;8.48;100.00;98628.66;5043681;28;20455;-54
2021/03/13 07:16:29;;;;;;;0.30;0.20;;;;;;;8.52;100.00;98632.91;5045987;28;20475;-55
2021/03/13 07:18:59;;;;;;;0.30;0.10;;;;;;;8.49;100.00;98627.72;5046114;28;20531;-54
2021/03/13 07:21:26;;;;;;;0.30;0.17;;;;;;;8.44;100.00;98620.94;5042837;28;20486;-54
2021/03/13 07:23:57;;;;;;;0.30;0.20;;;;;;;8.59;100.00;98628.16;5038742;28;20458;-54
2021/03/13 07:26:28;;;;;;;0.30;0.17;;;;;;;8.67;100.00;98626.03;5040523;28;20538;-55
2021/03/13 07:28:58;;;;;;;0.30;0.20;;;;;;;8.78;100.00;98620.22;5045866;28;20510;-55
2021/03/13 07:31:26;;;;;;;0.30;0.17;;;;;;;8.60;100.00;98608.69;5032473;28;20502;-54
2021/03/13 07:33:58;;;;;;;0.30;0.20;;;;;;;8.84;100.00;98617.25;5045052;28;20557;-54
2021/03/13 07:36:25;;;;;;;0.30;0.20;;;;;;;8.85;100.00;98621.63;5040720;28;20464;-55
2021/03/13 07:38:58;;;;;;;0.30;0.20;;;;;;;8.85;100.00;98616.34;5044135;28;20452;-54
2021/03/13 07:41:25;;;;;;;0.30;0.20;;;;;;;8.87;100.00;98611.81;5045313;28;20490;-54
2021/03/13 07:43:53;;;;;;;0.30;0.20;;;;;;;8.85;100.00;98601.28;5040573;28;20455;-54
2021/03/13 07:46:22;;;;;;;0.30;0.20;;;;;;;8.81;100.00;98609.47;5015825;28;661043;-54
2021/03/13 07:48:49;;;;;;;0.30;0.20;;;;;;;8.77;100.00;98605.22;5043468;28;20490;-53
2021/03/13 07:51:17;;;;;;;0.30;0.20;;;;;;;8.79;100.00;98606.03;5046120;28;20954;-54
2021/03/13 07:53:43;;;;;;;0.30;0.20;;;;;;;8.77;100.00;98603.47;5042239;28;20520;-54
2021/03/13 07:56:13;;;;;;;0.30;0.10;;;;;;;8.81;100.00;98605.03;5038976;28;21024;-54
2021/03/13 07:58:40;;;;;;;0.30;0.20;;;;;;;8.85;100.00;98603.94;5042712;28;20542;-54
2021/03/13 08:01:07;;;;;;;0.30;0.10;;;;;;;8.92;100.00;98608.97;5045800;28;20495;-54
2021/03/13 08:03:34;;;;;;;0.30;0.20;;;;;;;8.94;100.00;98601.78;5040853;28;20541;-54
2021/03/13 08:06:12;;;;;;;0.30;0.20;;;;;;;8.97;100.00;98605.13;5038733;28;20458;-54
2021/03/13 08:08:45;;;;;;;0.30;0.17;;;;;;;8.98;100.00;98604.19;5040738;28;20447;-54
2021/03/13 08:11:16;;;;;;;0.30;0.10;;;;;;;8.93;100.00;98589.47;5046068;28;20451;-54
2021/03/13 08:13:42;;;;;;;0.30;0.20;;;;;;;8.93;100.00;98582.38;5045195;28;20924;-54
2021/03/13 08:16:12;;;;;;;0.30;0.20;;;;;;;8.92;100.00;98588.63;5038618;28;20479;-54
2021/03/13 08:18:45;;;;;;;0.30;0.10;;;;;;;9.04;100.00;98587.13;5038622;28;20966;-54
2021/03/13 08:21:17;;;;;;;0.30;0.20;;;;;;;9.04;100.00;98571.22;5044805;28;21054;-54
2021/03/13 08:23:47;;;;;;;0.30;0.20;;;;;;;9.10;100.00;98574.44;5045447;28;20450;-54
2021/03/13 08:26:13;;;;;;;0.30;0.10;;;;;;;9.03;100.00;98572.16;5042048;28;20475;-54
2021/03/13 08:28:45;;;;;;;0.30;0.20;;;;;;;9.07;100.00;98557.84;5038352;28;20454;-54
2021/03/13 08:31:32;;;;;;;0.30;0.20;;;;;;;9.01;100.00;98569.59;5032799;28;20444;-54
2021/03/13 08:34:02;;;;;;;0.30;0.20;;;;;;;9.17;100.00;98559.06;5028352;28;20447;-59
2021/03/13 08:36:30;;;;;;;0.30;0.20;;;;;;;9.14;100.00;98557.44;5039135;28;20517;-54
2021/03/13 08:38:58;;;;;;;0.30;0.20;;;;;;;9.19;100.00;98546.63;5043081;28;20452;-53
2021/03/13 08:41:57;;;;;;;0.30;0.20;;;;;;;9.20;100.00;98551.00;5045557;28;20490;-54
2021/03/13 08:44:29;;;;;;;0.30;0.20;;;;;;;9.27;100.00;98544.41;5000593;28;20535;-55
2021/03/13 08:46:59;;;;;;;0.30;0.20;;;;;;;9.40;100.00;98549.94;5026551;28;20487;-54
2021/03/13 08:49:27;;;;;;;0.30;0.20;;;;;;;9.40;100.00;98553.44;5038245;28;20444;-54
2021/03/13 08:52:02;;;;;;;0.30;0.17;;;;;;;9.41;100.00;98546.34;5044029;28;20454;-54
2021/03/13 08:54:41;;;;;;;0.30;0.20;;;;;;;9.33;100.00;98532.66;5045245;28;20456;-54
2021/03/13 08:57:11;;;;;;;0.30;0.20;;;;;;;9.37;100.00;98542.16;5043002;28;20506;-53
2021/03/13 08:59:39;;;;;;;0.30;0.10;;;;;;;9.44;99.90;98528.47;5038481;28;20442;-53
2021/03/13 09:02:12;;;;;;;0.30;0.20;;;;;;;9.38;100.00;98520.00;5039862;28;20541;-53
2021/03/13 09:04:42;;;;;;;0.30;0.20;;;;;;;9.48;100.00;98530.06;5044867;28;20448;-54
2021/03/13 09:07:10;;;;;;;0.30;0.20;;;;;;;9.65;100.00;98533.59;5045090;28;20471;-55
2021/03/13 09:09:38;;;;;;;0.30;0.20;;;;;;;9.66;100.00;98514.97;5021845;28;20941;-54
2021/03/13 09:12:13;;;;;;;0.30;0.20;;;;;;;9.76;100.00;98521.50;5044858;28;20935;-54
2021/03/13 09:14:44;;;;;;;0.30;0.20;;;;;;;9.71;100.00;98502.28;5040376;28;20446;-54
2021/03/13 09:17:15;;;;;;;0.30;0.20;;;;;;;9.66;100.00;98514.09;5038692;28;20557;-53
2021/03/13 09:19:44;;;;;;;0.30;0.20;;;;;;;9.74;100.00;98517.22;5042961;28;20436;-53
2021/03/13 09:22:13;;;;;;;0.30;0.20;;;;;;;9.66;100.00;98508.78;5047221;28;21019;-54
2021/03/13 09:24:39;;;;;;;0.30;0.20;;;;;;;9.64;100.00;98516.84;5046008;28;20486;-54
2021/03/13 09:27:06;;;;;;;0.30;0.10;;;;;;;9.80;100.00;98498.28;5038192;28;20471;-53
2021/03/13 09:29:40;;;;;;;0.30;0.20;;;;;;;9.85;100.00;98508.66;5040567;28;20452;-53
2021/03/13 09:32:09;;;;;;;0.30;0.20;;;;;;;9.84;100.00;98501.63;5037624;28;21018;-54
2021/03/13 09:34:38;;;;;;;0.30;0.20;;;;;;;9.90;100.00;98486.25;5038954;28;20458;-55
2021/03/13 09:37:12;;;;;;;0.30;0.20;;;;;;;9.76;100.00;98505.56;5048480;28;20876;-56
2021/03/13 09:39:39;;;;;;;0.30;0.20;;;;;;;9.77;100.00;98499.31;5042892;28;20448;-57
2021/03/13 09:42:10;;;;;;;0.30;0.20;;;;;;;9.80;100.00;98477.06;5050173;28;20491;-56
2021/03/13 09:45:20;;;;;;;0.30;0.20;;;;;;;9.75;100.00;98487.09;5053455;28;20479;-56
2021/03/13 09:47:48;;;;;;;0.30;0.20;;;;;;;9.87;100.00;98469.63;4996927;28;20579;-57
2021/03/13 09:50:25;;;;;;;0.30;0.20;;;;;;;9.99;100.00;98475.09;5033280;28;20446;-57
2021/03/13 09:52:52;;;;;;;0.50;0.50;;;;;;;10.02;100.00;98484.72;5045148;28;20928;-57
2021/03/13 09:55:21;;;;;;;0.30;0.20;;;;;;;10.06;100.00;98472.97;5049369;28;20502;-57
2021/03/13 09:57:58;;;;;;;0.30;0.20;;;;;;;9.97;100.00;98454.91;5052508;28;20830;-57
2021/03/13 10:00:41;;;;;;;0.30;0.20;;;;;;;10.04;100.00;98478.38;5050063;28;20454;-57
2021/03/13 10:03:11;;;;;;;0.30;0.20;;;;;;;9.82;100.00;98493.75;5052015;28;20442;-57
2021/03/13 10:05:37;;;;;;;0.30;0.20;;;;;;;9.75;100.00;98503.84;5053047;28;20878;-57
2021/03/13 10:08:05;;;;;;;0.30;0.20;;;;;;;9.57;100.00;98543.75;5045918;28;20470;-56
2021/03/13 10:10:32;;;;;;;0.30;0.20;;;;;;;9.34;100.00;98566.19;5045542;28;20870;-56
2021/03/13 10:13:03;;;;;;;0.30;0.20;;;;;;;9.14;100.00;98581.28;5058931;28;20447;-56
2021/03/13 10:15:31;;;;;;;0.30;0.20;;;;;;;9.18;100.00;98596.13;5043803;28;20545;-56
2021/03/13 10:18:05;;;;;;;0.30;0.20;;;;;;;8.76;100.00;98600.88;5050539;28;20468;-56
2021/03/13 10:20:36;;;;;;;0.30;0.20;;;;;;;8.67;100.00;98625.16;5052342;28;20447;-56
2021/03/13 10:23:09;;;;;;;0.30;0.20;;;;;;;8.51;100.00;98644.44;5046863;28;20540;-56
2021/03/13 10:25:37;;;;;;;0.30;0.20;;;;;;;8.49;100.00;98645.41;5042532;28;20446;-56
2021/03/13 10:28:12;;;;;;;0.30;0.10;;;;;;;8.48;100.00;98667.53;5043815;28;20468;-56
2021/03/13 10:30:41;;;;;;;0.30;0.20;;;;;;;8.13;100.00;98674.41;5036114;28;20451;-56
2021/03/13 10:33:08;;;;;;;0.30;0.20;;;;;;;7.91;100.00;98677.13;5049508;28;20447;-56
2021/03/13 10:35:35;;;;;;;0.30;0.10;;;;;;;7.87;100.00;98671.13;5044047;28;20446;-57
2021/03/13 10:38:14;;;;;;;0.30;0.10;;;;;;;7.94;100.00;98685.78;5049762;28;20524;-56
2021/03/13 10:40:54;;;;;;;0.30;0.20;;;;;;;7.72;100.00;98692.94;5046402;28;20454;-57
2021/03/13 10:43:26;;;;;;;0.30;0.20;;;;;;;7.61;100.00;98677.53;5042800;28;20446;-56
2021/03/13 10:45:55;;;;;;;0.30;0.20;;;;;;;7.76;100.00;98680.44;5043039;28;20999;-57
2021/03/13 10:48:22;;;;;;;0.30;0.20;;;;;;;7.58;100.00;98701.47;5048226;28;20841;-57
2021/03/13 10:50:48;;;;;;;0.30;0.20;;;;;;;7.63;100.00;98695.97;5049169;28;20458;-56
2021/03/13 10:53:27;;;;;;;0.30;0.20;;;;;;;7.43;100.00;98704.75;5042666;28;20454;-56
2021/03/13 10:56:05;;;;;;;0.30;0.20;;;;;;;7.43;100.00;98689.75;5042603;28;20542;-56
2021/03/13 10:58:36;;;;;;;0.30;0.20;;;;;;;7.43;100.00;98694.19;5045809;28;20519;-57
2021/03/13 11:01:05;;;;;;;0.30;0.10;;;;;;;7.38;100.00;98696.13;5049373;28;20439;-56
2021/03/13 11:03:33;;;;;;;0.30;0.20;;;;;;;7.50;100.00;98711.50;5045903;28;20509;-56
2021/03/13 11:06:00;;;;;;;0.30;0.20;;;;;;;7.51;100.00;98715.84;5042568;28;20451;-56
2021/03/13 11:08:28;;;;;;;0.30;0.20;;;;;;;7.56;100.00;98732.41;5044626;28;20501;-57
2021/03/13 11:10:56;;;;;;;0.30;0.20;;;;;;;7.59;100.00;98732.28;5048658;28;20455;-57
2021/03/13 11:13:24;;;;;;;0.30;0.20;;;;;;;7.59;100.00;98715.53;5046091;28;20565;-57
2021/03/13 11:15:53;;;;;;;0.30;0.20;;;;;;;7.48;100.00;98723.06;5040828;28;20466;-57
2021/03/13 11:18:20;;;;;;;0.30;0.10;;;;;;;7.39;100.00;98717.22;5042842;28;20945;-56
2021/03/13 11:20:46;;;;;;;0.30;0.20;;;;;;;7.41;100.00;98714.53;5047529;28;20480;-57
2021/03/13 11:23:13;;;;;;;0.30;0.20;;;;;;;7.24;100.00;98699.34;5047556;28;20513;-57
2021/03/13 11:25:40;;;;;;;0.30;0.20;;;;;;;7.20;100.00;98678.41;5041654;28;20488;-56
2021/03/13 11:28:07;;;;;;;0.30;0.20;;;;;;;7.40;100.00;98695.16;5042276;28;20472;-56
2021/03/13 11:30:34;;;;;;;0.30;0.20;;;;;;;7.32;100.00;98672.63;5040430;28;20448;-57
2021/03/13 11:33:00;;;;;;;0.30;0.20;;;;;;;7.40;100.00;98667.84;5047770;28;20830;-56
2021/03/13 11:35:27;;;;;;;0.30;0.10;;;;;;;7.43;100.00;98668.59;5042027;28;20485;-57
2021/03/13 11:37:55;;;;;;;0.30;0.10;;;;;;;7.39;100.00;98676.72;5050977;28;20474;-56
2021/03/13 11:40:22;;;;;;;0.30;0.20;;;;;;;7.36;100.00;98660.97;5043755;28;20960;-57
2021/03/13 11:42:51;;;;;;;0.30;0.20;;;;;;;7.46;100.00;98667.63;5034852;28;20492;-56
2021/03/13 11:45:19;;;;;;;0.30;0.20;;;;;;;7.38;100.00;98667.91;5047477;28;20452;-56
2021/03/13 11:47:45;;;;;;;0.30;0.20;;;;;;;7.57;100.00;98659.22;5047997;28;20854;-56